sensor_id;sensor_type;location;lat;lon;timestamp;pressure;altitude;pressure_sealevel;temperature;humidity
35151;BME280;55720;51.972;4.624;2023-04-20T00:01:29;102538.00;;;5.89;100.00
35151;BME280;55720;51.972;4.624;2023-04-20T00:03:55;102535.13;;;5.79;100.00
35151;BME280;55720;51.972;4.624;2023-04-20T00:06:20;102533.50;;;5.78;100.00
35151;BME280;55720;51.972;4.624;2023-04-20T00:08:46;102538.94;;;5.78;100.00
35151;BME280;55720;51.972;4.624;2023-04-20T00:11:11;102535.25;;;5.89;100.00
35151;BME280;55720;51.972;4.624;2023-04-20T00:13:36;102522.31;;;6.07;100.00
35151;BME280;55720;51.972;4.624;2023-04-20T00:16:02;102526.78;;;5.86;100.00
35151;BME280;55720;51.972;4.624;2023-04-20T00:18:27;102515.03;;;6.22;100.00
35151;BME280;55720;51.972;4.624;2023-04-20T00:20:53;102509.97;;;6.36;100.00
35151;BME280;55720;51.972;4.624;2023-04-20T00:23:19;102507.88;;;6.53;100.00
35151;BME280;55720;51.972;4.624;2023-04-20T00:25:44;102505.44;;;6.57;100.00
35151;BME280;55720;51.972;4.624;2023-04-20T00:28:09;102509.78;;;6.53;100.00
35151;BME280;55720;51.972;4.624;2023-04-20T00:30:35;102504.81;;;6.39;100.00
35151;BME280;55720;51.972;4.624;2023-04-20T00:33:01;102513.97;;;6.23;100.00
35151;BME280;55720;51.972;4.624;2023-04-20T00:35:26;102506.31;;;6.20;100.00
35151;BME280;55720;51.972;4.624;2023-04-20T00:37:52;102508.97;;;6.10;100.00
35151;BME280;55720;51.972;4.624;2023-04-20T00:40:20;102501.63;;;6.16;100.00
35151;BME280;55720;51.972;4.624;2023-04-20T00:42:45;102512.47;;;6.06;100.00
35151;BME280;55720;51.972;4.624;2023-04-20T00:45:11;102510.19;;;5.92;100.00
35151;BME280;55720;51.972;4.624;2023-04-20T00:47:37;102514.44;;;5.83;100.00
35151;BME280;55720;51.972;4.624;2023-04-20T00:50:03;102522.22;;;5.70;100.00
35151;BME280;55720;51.972;4.624;2023-04-20T00:52:29;102518.75;;;5.74;100.00
35151;BME280;55720;51.972;4.624;2023-04-20T00:54:54;102518.44;;;5.71;100.00
35151;BME280;55720;51.972;4.624;2023-04-20T00:57:20;102517.31;;;5.67;100.00
35151;BME280;55720;51.972;4.624;2023-04-20T00:59:49;102517.78;;;5.59;100.00
35151;BME280;55720;51.972;4.624;2023-04-20T01:02:14;102520.41;;;5.49;100.00
35151;BME280;55720;51.972;4.624;2023-04-20T01:04:40;102525.75;;;5.38;100.00
35151;BME280;55720;51.972;4.624;2023-04-20T01:07:05;102521.38;;;5.37;100.00
35151;BME280;55720;51.972;4.624;2023-04-20T01:09:31;102524.56;;;5.29;100.00
35151;BME280;55720;51.972;4.624;2023-04-20T01:11:56;102518.47;;;5.22;100.00
35151;BME280;55720;51.972;4.624;2023-04-20T01:14:21;102515.34;;;5.09;100.00
35151;BME280;55720;51.972;4.624;2023-04-20T01:16:47;102521.97;;;4.96;100.00
35151;BME280;55720;51.972;4.624;2023-04-20T01:19:13;102512.88;;;4.85;100.00
35151;BME280;55720;51.972;4.624;2023-04-20T01:21:39;102509.72;;;4.72;100.00
35151;BME280;55720;51.972;4.624;2023-04-20T01:24:05;102503.97;;;4.68;100.00
35151;BME280;55720;51.972;4.624;2023-04-20T01:26:31;102506.13;;;4.66;100.00
35151;BME280;55720;51.972;4.624;2023-04-20T01:28:56;102491.38;;;4.62;100.00
35151;BME280;55720;51.972;4.624;2023-04-20T01:31:23;102499.53;;;4.62;100.00
35151;BME280;55720;51.972;4.624;2023-04-20T01:33:48;102489.78;;;4.66;100.00
35151;BME280;55720;51.972;4.624;2023-04-20T01:36:14;102486.81;;;4.68;100.00
35151;BME280;55720;51.972;4.624;2023-04-20T01:38:39;102483.56;;;4.71;100.00
35151;BME280;55720;51.972;4.624;2023-04-20T01:41:06;102484.22;;;4.78;100.00
35151;BME280;55720;51.972;4.624;2023-04-20T01:43:33;102479.16;;;4.65;100.00
35151;BME280;55720;51.972;4.624;2023-04-20T01:45:59;102476.88;;;4.57;100.00
35151;BME280;55720;51.972;4.624;2023-04-20T01:48:25;102480.09;;;4.54;100.00
35151;BME280;55720;51.972;4.624;2023-04-20T01:50:51;102479.28;;;4.53;100.00
35151;BME280;55720;51.972;4.624;2023-04-20T01:53:17;102476.22;;;4.50;100.00
35151;BME280;55720;51.972;4.624;2023-04-20T01:55:42;102480.53;;;4.45;100.00
35151;BME280;55720;51.972;4.624;2023-04-20T01:58:07;102475.59;;;4.42;100.00
35151;BME280;55720;51.972;4.624;2023-04-20T02:00:33;102479.66;;;4.40;100.00
35151;BME280;55720;51.972;4.624;2023-04-20T02:02:58;102468.25;;;4.43;100.00
35151;BME280;55720;51.972;4.624;2023-04-20T02:05:24;102469.84;;;4.39;100.00
35151;BME280;55720;51.972;4.624;2023-04-20T02:07:49;102469.50;;;4.35;100.00
35151;BME280;55720;51.972;4.624;2023-04-20T02:10:15;102468.50;;;4.41;100.00
35151;BME280;55720;51.972;4.624;2023-04-20T02:12:40;102469.50;;;4.35;100.00
35151;BME280;55720;51.972;4.624;2023-04-20T02:15:06;102464.16;;;4.40;100.00
35151;BME280;55720;51.972;4.624;2023-04-20T02:17:33;102471.69;;;4.33;100.00
35151;BME280;55720;51.972;4.624;2023-04-20T02:20:00;102456.81;;;4.19;100.00
35151;BME280;55720;51.972;4.624;2023-04-20T02:22:25;102461.13;;;4.20;100.00
35151;BME280;55720;51.972;4.624;2023-04-20T02:24:51;102461.66;;;4.17;100.00
35151;BME280;55720;51.972;4.624;2023-04-20T02:27:16;102461.69;;;4.01;100.00
35151;BME280;55720;51.972;4.624;2023-04-20T02:29:41;102464.81;;;3.92;100.00
35151;BME280;55720;51.972;4.624;2023-04-20T02:32:07;102465.91;;;3.75;100.00
35151;BME280;55720;51.972;4.624;2023-04-20T02:34:32;102466.81;;;3.64;100.00
35151;BME280;55720;51.972;4.624;2023-04-20T02:36:57;102459.38;;;3.42;100.00
35151;BME280;55720;51.972;4.624;2023-04-20T02:39:23;102453.78;;;3.32;100.00
35151;BME280;55720;51.972;4.624;2023-04-20T02:41:49;102437.63;;;3.26;100.00
35151;BME280;55720;51.972;4.624;2023-04-20T02:44:14;102429.41;;;3.21;100.00
35151;BME280;55720;51.972;4.624;2023-04-20T02:46:39;102425.16;;;3.25;100.00
35151;BME280;55720;51.972;4.624;2023-04-20T02:49:05;102408.53;;;3.21;100.00
35151;BME280;55720;51.972;4.624;2023-04-20T02:51:31;102397.09;;;3.36;100.00
35151;BME280;55720;51.972;4.624;2023-04-20T02:53:56;102384.09;;;3.38;100.00
35151;BME280;55720;51.972;4.624;2023-04-20T02:56:22;102383.84;;;3.39;100.00
35151;BME280;55720;51.972;4.624;2023-04-20T02:58:47;102371.31;;;3.55;100.00
35151;BME280;55720;51.972;4.624;2023-04-20T03:01:13;102355.03;;;3.72;100.00
35151;BME280;55720;51.972;4.624;2023-04-20T03:03:38;102347.94;;;3.71;100.00
35151;BME280;55720;51.972;4.624;2023-04-20T03:06:04;102348.47;;;3.89;100.00
35151;BME280;55720;51.972;4.624;2023-04-20T03:08:29;102326.56;;;4.18;100.00
35151;BME280;55720;51.972;4.624;2023-04-20T03:10:55;102324.53;;;4.30;100.00
35151;BME280;55720;51.972;4.624;2023-04-20T03:13:20;102318.16;;;4.46;100.00
35151;BME280;55720;51.972;4.624;2023-04-20T03:15:45;102315.25;;;4.53;100.00
35151;BME280;55720;51.972;4.624;2023-04-20T03:18:11;102304.31;;;4.47;100.00
35151;BME280;55720;51.972;4.624;2023-04-20T03:20:36;102306.13;;;4.37;100.00
35151;BME280;55720;51.972;4.624;2023-04-20T03:23:01;102293.63;;;4.14;100.00
35151;BME280;55720;51.972;4.624;2023-04-20T03:25:27;102293.81;;;4.08;100.00
35151;BME280;55720;51.972;4.624;2023-04-20T03:27:53;102275.97;;;4.17;100.00
35151;BME280;55720;51.972;4.624;2023-04-20T03:30:19;102260.97;;;4.36;100.00
35151;BME280;55720;51.972;4.624;2023-04-20T03:32:44;102252.69;;;4.53;100.00
35151;BME280;55720;51.972;4.624;2023-04-20T03:35:09;102248.47;;;4.67;100.00
35151;BME280;55720;51.972;4.624;2023-04-20T03:37:36;102242.63;;;4.85;100.00
35151;BME280;55720;51.972;4.624;2023-04-20T03:40:01;102239.50;;;5.03;100.00
35151;BME280;55720;51.972;4.624;2023-04-20T03:42:27;102234.81;;;5.30;100.00
35151;BME280;55720;51.972;4.624;2023-04-20T03:44:52;102234.91;;;5.45;100.00
35151;BME280;55720;51.972;4.624;2023-04-20T03:47:17;102238.22;;;5.53;100.00
35151;BME280;55720;51.972;4.624;2023-04-20T03:49:43;102238.28;;;5.68;100.00
35151;BME280;55720;51.972;4.624;2023-04-20T03:52:08;102233.91;;;5.72;100.00
35151;BME280;55720;51.972;4.624;2023-04-20T03:54:33;102235.06;;;5.81;100.00
35151;BME280;55720;51.972;4.624;2023-04-20T03:56:59;102236.75;;;5.87;100.00
35151;BME280;55720;51.972;4.624;2023-04-20T03:59:24;102234.59;;;5.94;100.00
35151;BME280;55720;51.972;4.624;2023-04-20T04:01:49;102236.22;;;5.95;100.00
35151;BME280;55720;51.972;4.624;2023-04-20T04:04:15;102227.25;;;6.00;100.00
35151;BME280;55720;51.972;4.624;2023-04-20T04:06:41;102229.16;;;5.99;100.00
35151;BME280;55720;51.972;4.624;2023-04-20T04:09:06;102242.78;;;6.04;100.00
35151;BME280;55720;51.972;4.624;2023-04-20T04:11:32;102237.66;;;6.08;100.00
35151;BME280;55720;51.972;4.624;2023-04-20T04:13:58;102234.66;;;6.14;100.00
35151;BME280;55720;51.972;4.624;2023-04-20T04:16:23;102234.66;;;6.14;100.00
35151;BME280;55720;51.972;4.624;2023-04-20T04:18:49;102231.41;;;6.17;100.00
35151;BME280;55720;51.972;4.624;2023-04-20T04:21:14;102231.94;;;6.19;100.00
35151;BME280;55720;51.972;4.624;2023-04-20T04:23:40;102233.31;;;6.27;100.00
35151;BME280;55720;51.972;4.624;2023-04-20T04:26:07;102218.06;;;6.31;100.00
35151;BME280;55720;51.972;4.624;2023-04-20T04:28:32;102216.41;;;6.35;100.00
35151;BME280;55720;51.972;4.624;2023-04-20T04:30:58;102212.63;;;6.36;100.00
35151;BME280;55720;51.972;4.624;2023-04-20T04:33:26;102214.22;;;6.37;100.00
35151;BME280;55720;51.972;4.624;2023-04-20T04:35:51;102200.59;;;6.37;100.00
35151;BME280;55720;51.972;4.624;2023-04-20T04:38:17;102195.69;;;6.39;100.00
35151;BME280;55720;51.972;4.624;2023-04-20T04:40:43;102190.78;;;6.36;100.00
35151;BME280;55720;51.972;4.624;2023-04-20T04:43:10;102186.16;;;6.41;100.00
35151;BME280;55720;51.972;4.624;2023-04-20T04:45:38;102191.06;;;6.44;100.00
35151;BME280;55720;51.972;4.624;2023-04-20T04:48:05;102180.69;;;6.41;100.00
35151;BME280;55720;51.972;4.624;2023-04-20T04:50:30;102182.03;;;6.44;100.00
35151;BME280;55720;51.972;4.624;2023-04-20T04:52:56;102180.13;;;6.44;100.00
35151;BME280;55720;51.972;4.624;2023-04-20T04:55:21;102171.41;;;6.42;100.00
35151;BME280;55720;51.972;4.624;2023-04-20T04:57:46;102168.94;;;6.51;100.00
35151;BME280;55720;51.972;4.624;2023-04-20T05:00:12;102173.06;;;6.54;100.00
35151;BME280;55720;51.972;4.624;2023-04-20T05:02:38;102170.31;;;6.59;100.00
35151;BME280;55720;51.972;4.624;2023-04-20T05:05:04;102167.59;;;6.64;100.00
35151;BME280;55720;51.972;4.624;2023-04-20T05:07:29;102163.50;;;6.71;100.00
35151;BME280;55720;51.972;4.624;2023-04-20T05:09:54;102165.41;;;6.71;100.00
35151;BME280;55720;51.972;4.624;2023-04-20T05:12:20;102157.50;;;6.79;100.00
35151;BME280;55720;51.972;4.624;2023-04-20T05:14:45;102146.84;;;6.83;100.00
35151;BME280;55720;51.972;4.624;2023-04-20T05:17:10;102141.91;;;6.85;100.00
35151;BME280;55720;51.972;4.624;2023-04-20T05:19:36;102136.19;;;6.86;100.00
35151;BME280;55720;51.972;4.624;2023-04-20T05:22:01;102135.63;;;6.89;100.00
35151;BME280;55720;51.972;4.624;2023-04-20T05:24:27;102135.06;;;6.92;100.00
35151;BME280;55720;51.972;4.624;2023-04-20T05:26:52;102136.44;;;7.00;100.00
35151;BME280;55720;51.972;4.624;2023-04-20T05:29:18;102124.38;;;7.11;100.00
35151;BME280;55720;51.972;4.624;2023-04-20T05:31:44;102114.81;;;7.19;100.00
35151;BME280;55720;51.972;4.624;2023-04-20T05:34:09;102108.22;;;7.25;100.00
35151;BME280;55720;51.972;4.624;2023-04-20T05:36:35;102118.88;;;7.26;100.00
35151;BME280;55720;51.972;4.624;2023-04-20T05:39:01;102114.25;;;7.22;100.00
35151;BME280;55720;51.972;4.624;2023-04-20T05:41:26;102118.88;;;7.26;100.00
35151;BME280;55720;51.972;4.624;2023-04-20T05:43:53;102118.31;;;7.29;100.00
35151;BME280;55720;51.972;4.624;2023-04-20T05:46:19;102125.69;;;7.34;100.00
35151;BME280;55720;51.972;4.624;2023-04-20T05:48:45;102130.78;;;7.46;100.00
35151;BME280;55720;51.972;4.624;2023-04-20T05:51:10;102147.16;;;7.56;100.00
35151;BME280;55720;51.972;4.624;2023-04-20T05:53:36;102146.28;;;7.65;100.00
35151;BME280;55720;51.972;4.624;2023-04-20T05:56:01;102155.81;;;7.73;100.00
35151;BME280;55720;51.972;4.624;2023-04-20T05:58:27;102150.03;;;7.79;100.00
35151;BME280;55720;51.972;4.624;2023-04-20T06:00:53;102160.66;;;7.86;100.00
35151;BME280;55720;51.972;4.624;2023-04-20T06:03:19;102162.56;;;7.90;100.00
35151;BME280;55720;51.972;4.624;2023-04-20T06:05:44;102170.44;;;7.97;100.00
35151;BME280;55720;51.972;4.624;2023-04-20T06:08:10;102176.75;;;7.98;100.00
35151;BME280;55720;51.972;4.624;2023-04-20T06:10:35;102183.28;;;8.02;100.00
35151;BME280;55720;51.972;4.624;2023-04-20T06:13:01;102185.19;;;8.01;100.00
35151;BME280;55720;51.972;4.624;2023-04-20T06:15:26;102188.78;;;7.97;100.00
35151;BME280;55720;51.972;4.624;2023-04-20T06:17:52;102182.78;;;7.95;100.00
35151;BME280;55720;51.972;4.624;2023-04-20T06:20:17;102194.28;;;7.91;100.00
35151;BME280;55720;51.972;4.624;2023-04-20T06:22:44;102180.03;;;7.95;100.00
35151;BME280;55720;51.972;4.624;2023-04-20T06:25:10;102192.13;;;7.88;100.00
35151;BME280;55720;51.972;4.624;2023-04-20T06:27:35;102172.97;;;7.88;100.00
35151;BME280;55720;51.972;4.624;2023-04-20T06:30:00;102172.16;;;7.88;100.00
35151;BME280;55720;51.972;4.624;2023-04-20T06:32:26;102168.84;;;7.91;100.00
35151;BME280;55720;51.972;4.624;2023-04-20T06:34:51;102168.88;;;7.86;100.00
35151;BME280;55720;51.972;4.624;2023-04-20T06:37:17;102167.75;;;7.92;100.00
35151;BME280;55720;51.972;4.624;2023-04-20T06:39:43;102160.59;;;8.01;100.00
35151;BME280;55720;51.972;4.624;2023-04-20T06:42:08;102169.88;;;8.05;100.00
35151;BME280;55720;51.972;4.624;2023-04-20T06:44:33;102159.41;;;8.12;100.00
35151;BME280;55720;51.972;4.624;2023-04-20T06:46:59;102156.41;;;8.14;100.00
35151;BME280;55720;51.972;4.624;2023-04-20T06:49:24;102149.53;;;8.16;100.00
35151;BME280;55720;51.972;4.624;2023-04-20T06:51:50;102150.38;;;8.17;100.00
35151;BME280;55720;51.972;4.624;2023-04-20T06:54:15;102145.72;;;8.17;100.00
35151;BME280;55720;51.972;4.624;2023-04-20T06:56:40;102159.75;;;8.06;100.00
35151;BME280;55720;51.972;4.624;2023-04-20T06:59:06;102152.66;;;8.00;100.00
35151;BME280;55720;51.972;4.624;2023-04-20T07:01:31;102155.69;;;7.93;100.00
35151;BME280;55720;51.972;4.624;2023-04-20T07:03:56;102149.16;;;7.89;100.00
35151;BME280;55720;51.972;4.624;2023-04-20T07:06:22;102159.34;;;7.78;100.00
35151;BME280;55720;51.972;4.624;2023-04-20T07:08:49;102147.38;;;7.64;100.00
35151;BME280;55720;51.972;4.624;2023-04-20T07:11:14;102155.38;;;7.56;100.00
35151;BME280;55720;51.972;4.624;2023-04-20T07:13:39;102162.53;;;7.36;100.00
35151;BME280;55720;51.972;4.624;2023-04-20T07:16:05;102165.31;;;7.26;100.00
35151;BME280;55720;51.972;4.624;2023-04-20T07:18:30;102162.28;;;7.28;100.00
35151;BME280;55720;51.972;4.624;2023-04-20T07:20:56;102180.88;;;7.26;100.00
35151;BME280;55720;51.972;4.624;2023-04-20T07:23:21;102176.25;;;7.21;100.00
35151;BME280;55720;51.972;4.624;2023-04-20T07:25:46;102172.16;;;7.19;100.00
35151;BME280;55720;51.972;4.624;2023-04-20T07:28:12;102182.81;;;7.10;100.00
35151;BME280;55720;51.972;4.624;2023-04-20T07:30:37;102186.41;;;7.01;100.00
35151;BME280;55720;51.972;4.624;2023-04-20T07:33:02;102183.41;;;6.92;100.00
35151;BME280;55720;51.972;4.624;2023-04-20T07:35:28;102185.03;;;6.88;100.00
35151;BME280;55720;51.972;4.624;2023-04-20T07:37:53;102179.06;;;6.76;100.00
35151;BME280;55720;51.972;4.624;2023-04-20T07:40:19;102162.44;;;6.47;100.00
35151;BME280;55720;51.972;4.624;2023-04-20T07:42:44;102140.59;;;6.22;100.00
35151;BME280;55720;51.972;4.624;2023-04-20T07:45:12;102116.28;;;6.05;100.00
35151;BME280;55720;51.972;4.624;2023-04-20T07:47:38;102093.94;;;5.98;100.00
35151;BME280;55720;51.972;4.624;2023-04-20T07:50:04;102084.09;;;5.87;100.00
35151;BME280;55720;51.972;4.624;2023-04-20T07:52:30;102069.66;;;5.86;100.00
35151;BME280;55720;51.972;4.624;2023-04-20T07:54:55;102049.78;;;5.86;100.00
35151;BME280;55720;51.972;4.624;2023-04-20T07:57:23;102032.81;;;5.84;100.00
35151;BME280;55720;51.972;4.624;2023-04-20T07:59:48;102021.91;;;5.79;100.00
35151;BME280;55720;51.972;4.624;2023-04-20T08:02:14;102004.22;;;5.71;100.00
35151;BME280;55720;51.972;4.624;2023-04-20T08:04:40;102000.41;;;5.67;100.00
35151;BME280;55720;51.972;4.624;2023-04-20T08:07:05;101992.22;;;5.67;100.00
35151;BME280;55720;51.972;4.624;2023-04-20T08:09:31;101977.50;;;5.68;100.00
35151;BME280;55720;51.972;4.624;2023-04-20T08:11:56;101959.78;;;5.76;100.00
35151;BME280;55720;51.972;4.624;2023-04-20T08:14:21;101939.91;;;5.80;100.00
35151;BME280;55720;51.972;4.624;2023-04-20T08:16:47;101930.91;;;5.75;100.00
35151;BME280;55720;51.972;4.624;2023-04-20T08:19:12;101920.84;;;5.70;100.00
35151;BME280;55720;51.972;4.624;2023-04-20T08:21:39;101913.19;;;5.72;100.00
35151;BME280;55720;51.972;4.624;2023-04-20T08:24:05;101879.66;;;5.77;100.00
35151;BME280;55720;51.972;4.624;2023-04-20T08:26:31;101857.34;;;5.70;100.00
35151;BME280;55720;51.972;4.624;2023-04-20T08:28:57;101827.38;;;5.65;100.00
35151;BME280;55720;51.972;4.624;2023-04-20T08:31:22;101792.50;;;5.67;100.00
35151;BME280;55720;51.972;4.624;2023-04-20T08:33:47;101764.41;;;5.76;100.00
35151;BME280;55720;51.972;4.624;2023-04-20T08:36:13;101732.00;;;5.75;100.00
35151;BME280;55720;51.972;4.624;2023-04-20T08:38:38;101699.78;;;5.92;100.00
35151;BME280;55720;51.972;4.624;2023-04-20T08:41:04;101679.34;;;5.84;100.00
35151;BME280;55720;51.972;4.624;2023-04-20T08:43:30;101659.72;;;5.82;100.00
35151;BME280;55720;51.972;4.624;2023-04-20T08:45:58;101636.25;;;5.97;100.00
35151;BME280;55720;51.972;4.624;2023-04-20T08:48:25;101651.16;;;6.09;100.00
35151;BME280;55720;51.972;4.624;2023-04-20T08:50:53;101638.50;;;6.23;100.00
35151;BME280;55720;51.972;4.624;2023-04-20T08:53:21;101629.66;;;6.41;100.00
35151;BME280;55720;51.972;4.624;2023-04-20T08:55:48;101628.75;;;6.51;100.00
35151;BME280;55720;51.972;4.624;2023-04-20T08:58:14;101670.38;;;6.33;100.00
35151;BME280;55720;51.972;4.624;2023-04-20T09:00:47;101675.94;;;6.18;100.00
35151;BME280;55720;51.972;4.624;2023-04-20T09:03:12;101676.44;;;6.20;100.00
35151;BME280;55720;51.972;4.624;2023-04-20T09:05:37;101699.00;;;6.30;100.00
35151;BME280;55720;51.972;4.624;2023-04-20T09:08:04;101708.75;;;6.41;100.00
35151;BME280;55720;51.972;4.624;2023-04-20T09:10:43;101719.09;;;6.44;100.00
35151;BME280;55720;51.972;4.624;2023-04-20T09:13:20;101732.47;;;6.46;100.00
35151;BME280;55720;51.972;4.624;2023-04-20T09:15:45;101736.88;;;6.37;100.00
35151;BME280;55720;51.972;4.624;2023-04-20T09:18:12;101736.34;;;6.35;100.00
35151;BME280;55720;51.972;4.624;2023-04-20T09:20:39;101731.47;;;6.32;100.00
35151;BME280;55720;51.972;4.624;2023-04-20T09:23:18;101730.81;;;6.45;100.00
35151;BME280;55720;51.972;4.624;2023-04-20T09:25:45;101737.25;;;6.20;100.00
35151;BME280;55720;51.972;4.624;2023-04-20T09:28:12;101741.81;;;6.30;100.00
35151;BME280;55720;51.972;4.624;2023-04-20T09:30:47;101762.81;;;6.29;100.00
35151;BME280;55720;51.972;4.624;2023-04-20T09:33:13;101749.25;;;6.19;100.00
35151;BME280;55720;51.972;4.624;2023-04-20T09:35:40;101746.19;;;6.36;100.00
35151;BME280;55720;51.972;4.624;2023-04-20T09:38:10;101739.59;;;6.37;100.00
35151;BME280;55720;51.972;4.624;2023-04-20T09:40:36;101750.25;;;6.38;100.00
35151;BME280;55720;51.972;4.624;2023-04-20T09:43:21;101741.88;;;6.64;100.00
35151;BME280;55720;51.972;4.624;2023-04-20T09:45:48;101737.66;;;6.81;100.00
35151;BME280;55720;51.972;4.624;2023-04-20T09:48:15;101750.69;;;6.89;100.00
35151;BME280;55720;51.972;4.624;2023-04-20T09:50:43;101770.25;;;7.02;100.00
35151;BME280;55720;51.972;4.624;2023-04-20T09:53:08;101783.53;;;7.13;100.00
35151;BME280;55720;51.972;4.624;2023-04-20T09:55:35;101779.94;;;7.47;100.00
35151;BME280;55720;51.972;4.624;2023-04-20T09:58:02;101798.56;;;7.68;100.00
35151;BME280;55720;51.972;4.624;2023-04-20T10:00:28;101803.16;;;7.97;100.00
35151;BME280;55720;51.972;4.624;2023-04-20T10:02:54;101825.97;;;7.87;100.00
35151;BME280;55720;51.972;4.624;2023-04-20T10:05:31;101854.19;;;7.82;100.00
35151;BME280;55720;51.972;4.624;2023-04-20T10:08:00;101864.38;;;7.77;100.00
35151;BME280;55720;51.972;4.624;2023-04-20T10:10:26;101873.16;;;7.74;100.00
35151;BME280;55720;51.972;4.624;2023-04-20T10:12:53;101874.72;;;7.80;100.00
35151;BME280;55720;51.972;4.624;2023-04-20T10:15:19;101865.31;;;7.91;100.00
35151;BME280;55720;51.972;4.624;2023-04-20T10:17:46;101857.50;;;8.51;100.00
35151;BME280;55720;51.972;4.624;2023-04-20T10:20:24;101872.13;;;8.83;100.00
35151;BME280;55720;51.972;4.624;2023-04-20T10:23:06;101888.91;;;8.58;100.00
35151;BME280;55720;51.972;4.624;2023-04-20T10:25:31;101893.22;;;8.64;100.00
35151;BME280;55720;51.972;4.624;2023-04-20T10:27:59;101905.31;;;8.82;100.00
35151;BME280;55720;51.972;4.624;2023-04-20T10:30:27;101907.56;;;8.94;100.00
35151;BME280;55720;51.972;4.624;2023-04-20T10:33:19;101901.22;;;9.17;100.00
35151;BME280;55720;51.972;4.624;2023-04-20T10:35:52;101919.97;;;9.10;100.00
35151;BME280;55720;51.972;4.624;2023-04-20T10:38:32;101923.94;;;8.80;100.00
35151;BME280;55720;51.972;4.624;2023-04-20T10:41:11;101935.97;;;9.21;100.00
35151;BME280;55720;51.972;4.624;2023-04-20T10:43:36;101920.53;;;9.44;100.00
35151;BME280;55720;51.972;4.624;2023-04-20T10:46:21;101940.84;;;9.24;100.00
35151;BME280;55720;51.972;4.624;2023-04-20T10:49:00;101937.06;;;9.20;100.00
35151;BME280;55720;51.972;4.624;2023-04-20T10:51:26;101932.56;;;9.29;100.00
35151;BME280;55720;51.972;4.624;2023-04-20T10:54:06;101932.78;;;9.14;100.00
35151;BME280;55720;51.972;4.624;2023-04-20T10:56:40;101938.81;;;8.74;100.00
35151;BME280;55720;51.972;4.624;2023-04-20T10:59:14;101939.63;;;8.51;100.00
35151;BME280;55720;51.972;4.624;2023-04-20T11:01:40;101935.03;;;8.70;100.00
35151;BME280;55720;51.972;4.624;2023-04-20T11:04:07;101933.56;;;8.54;100.00
35151;BME280;55720;51.972;4.624;2023-04-20T11:06:34;101930.28;;;8.75;100.00
35151;BME280;55720;51.972;4.624;2023-04-20T11:09:00;101924.38;;;8.87;100.00
35151;BME280;55720;51.972;4.624;2023-04-20T11:11:26;101929.13;;;8.81;100.00
35151;BME280;55720;51.972;4.624;2023-04-20T11:14:12;101942.09;;;8.23;100.00
35151;BME280;55720;51.972;4.624;2023-04-20T11:16:38;101928.53;;;8.13;100.00
35151;BME280;55720;51.972;4.624;2023-04-20T11:19:04;101920.34;;;8.13;100.00
35151;BME280;55720;51.972;4.624;2023-04-20T11:21:37;101914.63;;;8.10;100.00
35151;BME280;55720;51.972;4.624;2023-04-20T11:24:04;101898.56;;;8.51;100.00
35151;BME280;55720;51.972;4.624;2023-04-20T11:26:36;101893.66;;;9.09;100.00
35151;BME280;55720;51.972;4.624;2023-04-20T11:29:01;101898.72;;;9.53;100.00
35151;BME280;55720;51.972;4.624;2023-04-20T11:31:28;101904.53;;;9.97;100.00
35151;BME280;55720;51.972;4.624;2023-04-20T11:33:53;101915.53;;;9.97;100.00
35151;BME280;55720;51.972;4.624;2023-04-20T11:36:20;101914.34;;;9.71;100.00
35151;BME280;55720;51.972;4.624;2023-04-20T11:38:46;101909.66;;;9.71;100.00
35151;BME280;55720;51.972;4.624;2023-04-20T11:41:11;101905.63;;;10.28;100.00
35151;BME280;55720;51.972;4.624;2023-04-20T11:43:36;101910.56;;;10.95;100.00
35151;BME280;55720;51.972;4.624;2023-04-20T11:46:02;101921.84;;;10.93;100.00
35151;BME280;55720;51.972;4.624;2023-04-20T11:48:30;101925.72;;;10.92;100.00
35151;BME280;55720;51.972;4.624;2023-04-20T11:50:56;101923.56;;;10.89;100.00
35151;BME280;55720;51.972;4.624;2023-04-20T11:53:21;101930.81;;;10.71;100.00
35151;BME280;55720;51.972;4.624;2023-04-20T11:55:47;101913.72;;;10.88;100.00
35151;BME280;55720;51.972;4.624;2023-04-20T11:58:13;101921.88;;;10.79;100.00
35151;BME280;55720;51.972;4.624;2023-04-20T12:00:38;101920.56;;;10.77;100.00
35151;BME280;55720;51.972;4.624;2023-04-20T12:03:04;101917.59;;;10.87;100.00
35151;BME280;55720;51.972;4.624;2023-04-20T12:05:29;101922.69;;;10.53;100.00
35151;BME280;55720;51.972;4.624;2023-04-20T12:07:55;101924.66;;;10.52;100.00
35151;BME280;55720;51.972;4.624;2023-04-20T12:10:20;101926.75;;;10.69;100.00
35151;BME280;55720;51.972;4.624;2023-04-20T12:12:46;101924.13;;;10.36;100.00
35151;BME280;55720;51.972;4.624;2023-04-20T12:15:11;101923.91;;;10.47;100.00
35151;BME280;55720;51.972;4.624;2023-04-20T12:17:37;101925.13;;;10.68;100.00
35151;BME280;55720;51.972;4.624;2023-04-20T12:20:02;101923.94;;;10.33;100.00
35151;BME280;55720;51.972;4.624;2023-04-20T12:22:32;101910.38;;;10.64;100.00
35151;BME280;55720;51.972;4.624;2023-04-20T12:24:58;101917.81;;;10.77;100.00
35151;BME280;55720;51.972;4.624;2023-04-20T12:27:23;101916.22;;;10.49;100.00
35151;BME280;55720;51.972;4.624;2023-04-20T12:29:50;101914.34;;;11.21;100.00
35151;BME280;55720;51.972;4.624;2023-04-20T12:32:15;101922.59;;;11.43;100.00
35151;BME280;55720;51.972;4.624;2023-04-20T12:34:41;101921.16;;;11.23;100.00
35151;BME280;55720;51.972;4.624;2023-04-20T12:37:06;101932.31;;;11.63;100.00
35151;BME280;55720;51.972;4.624;2023-04-20T12:39:31;101932.97;;;11.68;100.00
35151;BME280;55720;51.972;4.624;2023-04-20T12:41:57;101930.84;;;11.65;100.00
35151;BME280;55720;51.972;4.624;2023-04-20T12:44:22;101927.72;;;11.72;100.00
35151;BME280;55720;51.972;4.624;2023-04-20T12:46:47;101929.81;;;11.53;100.00